Airfield :
LOGIN :

Register | Disclaimer

   EN    FR    IT 

 










Legend :    VFR   Marginal VFR   IFR   Intensive IFR   Very Intensive IFR
Visi :
Ceiling :
>= 8 km
>= 3000ft
5 to 8 km
1000 to 3000 ft
1500m to 5 km
500 to 1000 ft
800 to 1500m
200 to 500 ft
< 800m
< 200 ft
Symbols :   Thunderstorms  Fog  Heavy snow  Heavy precipitations  Wind > 20 kt
SIGMETs :     Misc.  Thunderstorms  Icing  Turbulence  Mountain Waves  Volcanic Ashes






- Airport Elevation : 1300 ft
- IATA code : LIG


LFBL - Limoges

CURRENT METAR :
  • 040500Z AUTO 14002KT CAVOK 11/10 Q1023 NOSIG

EXPIRED METARs :
  • 040430Z AUTO 29004KT CAVOK 10/09 Q1024 NOSIG
  • 040400Z AUTO 29004KT CAVOK 11/09 Q1024 NOSIG
  • 040330Z AUTO 28005KT CAVOK 11/09 Q1024 NOSIG
  • 040300Z AUTO 29004KT CAVOK 11/09 Q1023 NOSIG
  • 040230Z AUTO 29005KT CAVOK 11/09 Q1023 NOSIG

TAF TAF LFBL
Valid from the 04 at 00:00 until the 05 at 00:00 UTC


032300Z 0400/0424 VRB03KT CAVOK
BECMG 0407/0409 27007KT
ATIS : +33 5 55 48 40 37



MET'MAP, your aeronautical weather chart ! - Copyright ORBIFLY December 2007 - Disclaimer

ORBIFLY MET'MAP TEAM :

Programming & Development : Alexandra Zaïnal
Concept & original design : Baudouin d'Aumeries
Assistance for programming : Marc-Olivier Méhu
Technical & hardware support : Manuel Goepfert

Contact : metmap@orbifly.com




SOURCES & CREDITS :

   NOAA